Time;durP1;ratioP1;P1;durP2;ratioP2;P2;SDS_P1;SDS_P2;PMS_P1;PMS_P2;Temp;Humidity;BMP_temperature;BMP_pressure;BME280_temperature;BME280_humidity;BME280_pressure;Samples;Min_cycle;Max_cycle;Signal;HPM_P1;HPM_P2
2023/07/16 00:00:54;;;;;;;1.83;1.30;;;;;;;;;;8301291;28;20101;-61
2023/07/16 00:04:55;;;;;;;2.70;1.42;;;;;;;;;;8302718;28;20037;-61
2023/07/16 00:08:55;;;;;;;1.10;0.93;;;;;;;;;;8304842;28;20080;-61
2023/07/16 00:12:56;;;;;;;2.30;1.23;;;;;;;;;;8300346;28;20286;-61
2023/07/16 00:16:57;;;;;;;1.55;1.33;;;;;;;;;;8300579;28;20512;-61
2023/07/16 00:20:58;;;;;;;2.33;1.33;;;;;;;;;;8303499;28;20099;-61
2023/07/16 00:24:58;;;;;;;1.77;1.40;;;;;;;;;;8304354;28;20022;-61
2023/07/16 00:28:58;;;;;;;1.70;1.30;;;;;;;;;;8298258;28;20025;-61
2023/07/16 00:32:58;;;;;;;1.60;1.07;;;;;;;;;;8307344;28;20045;-61
2023/07/16 00:37:01;;;;;;;2.53;1.40;;;;;;;;;;8300413;28;20272;-61
2023/07/16 00:41:01;;;;;;;5.53;1.30;;;;;;;;;;8302615;28;20037;-61
2023/07/16 00:45:02;;;;;;;2.08;1.30;;;;;;;;;;8302166;28;20929;-61
2023/07/16 00:49:03;;;;;;;2.08;1.38;;;;;;;;;;8300427;28;20694;-61
2023/07/16 00:53:03;;;;;;;3.03;1.50;;;;;;;;;;8302944;28;20766;-61
2023/07/16 00:57:03;;;;;;;2.45;1.65;;;;;;;;;;8297976;28;20379;-61
2023/07/16 01:01:04;;;;;;;4.35;1.60;;;;;;;;;;8303360;28;20045;-61
2023/07/16 01:05:04;;;;;;;3.63;1.73;;;;;;;;;;8302537;28;20029;-60
2023/07/16 01:09:09;;;;;;;3.85;1.60;;;;;;;;;;8299615;28;20124;-61
2023/07/16 01:13:09;;;;;;;1.80;1.50;;;;;;;;;;8299699;28;20059;-61
2023/07/16 01:17:09;;;;;;;4.70;1.70;;;;;;;;;;8296430;28;20429;-61
2023/07/16 01:21:10;;;;;;;3.53;1.48;;;;;;;;;;8301308;28;20116;-60
2023/07/16 01:25:10;;;;;;;4.45;1.92;;;;;;;;;;8301735;28;20145;-61
2023/07/16 01:29:23;;;;;;;3.78;1.45;;;;;;;;;;8297712;28;20052;-61
2023/07/16 01:33:23;;;;;;;3.55;1.95;;;;;;;;;;8299777;28;20037;-60
2023/07/16 01:37:24;;;;;;;1.90;1.40;;;;;;;;;;8297568;28;20029;-60
2023/07/16 01:41:24;;;;;;;3.60;2.00;;;;;;;;;;8299793;28;21475;-61
2023/07/16 01:45:25;;;;;;;3.20;1.73;;;;;;;;;;8301184;28;20132;-61
2023/07/16 01:49:25;;;;;;;3.33;1.70;;;;;;;;;;8305426;28;20025;-60
2023/07/16 01:53:25;;;;;;;5.07;1.95;;;;;;;;;;8307537;28;20275;-61
2023/07/16 01:57:25;;;;;;;4.37;1.50;;;;;;;;;;8305329;28;20300;-61
2023/07/16 02:01:26;;;;;;;2.90;1.52;;;;;;;;;;8306117;28;20455;-60
2023/07/16 02:05:26;;;;;;;4.07;1.70;;;;;;;;;;8305782;28;20028;-60
2023/07/16 02:09:26;;;;;;;4.68;1.70;;;;;;;;;;8303704;28;20794;-60
2023/07/16 02:13:27;;;;;;;4.07;1.60;;;;;;;;;;8305647;28;20401;-60
2023/07/16 02:17:27;;;;;;;8.70;1.75;;;;;;;;;;8304327;28;20072;-61
2023/07/16 02:21:27;;;;;;;5.70;1.60;;;;;;;;;;8304112;28;20024;-60
2023/07/16 02:25:28;;;;;;;5.78;1.80;;;;;;;;;;8305097;28;20020;-60
2023/07/16 02:29:28;;;;;;;5.17;1.70;;;;;;;;;;8307538;28;20611;-61
2023/07/16 02:33:28;;;;;;;3.33;1.30;;;;;;;;;;8304378;28;20280;-60
2023/07/16 02:37:29;;;;;;;6.22;1.63;;;;;;;;;;8305402;28;20033;-60
2023/07/16 02:41:29;;;;;;;6.55;1.83;;;;;;;;;;8303071;28;20029;-61
2023/07/16 02:45:29;;;;;;;3.53;1.60;;;;;;;;;;8303916;28;20797;-61
2023/07/16 02:49:29;;;;;;;2.83;1.50;;;;;;;;;;8306252;28;20029;-61
2023/07/16 02:53:29;;;;;;;3.17;1.50;;;;;;;;;;8304073;28;20210;-61
2023/07/16 02:57:30;;;;;;;3.83;1.58;;;;;;;;;;8306360;28;20032;-61
2023/07/16 03:01:30;;;;;;;5.57;1.80;;;;;;;;;;8304963;28;20164;-61
2023/07/16 03:05:30;;;;;;;2.20;1.48;;;;;;;;;;8301281;28;20024;-61
2023/07/16 03:09:30;;;;;;;4.50;1.63;;;;;;;;;;8305689;28;20125;-61
2023/07/16 03:13:31;;;;;;;5.07;2.00;;;;;;;;;;8304976;28;20032;-60
2023/07/16 03:17:31;;;;;;;4.20;1.60;;;;;;;;;;8302334;28;20032;-61
2023/07/16 03:21:31;;;;;;;3.90;1.63;;;;;;;;;;8303566;28;20128;-61
2023/07/16 03:25:31;;;;;;;6.70;1.77;;;;;;;;;;8301756;28;20410;-60
2023/07/16 03:29:32;;;;;;;3.60;1.88;;;;;;;;;;8304857;28;20292;-60
2023/07/16 03:33:32;;;;;;;5.93;1.60;;;;;;;;;;8303003;28;20030;-61
2023/07/16 03:37:33;;;;;;;3.67;1.90;;;;;;;;;;8302884;28;20030;-62
2023/07/16 03:41:33;;;;;;;5.90;1.90;;;;;;;;;;8303422;28;20028;-62
2023/07/16 03:45:33;;;;;;;8.25;2.20;;;;;;;;;;8302451;28;20267;-62
2023/07/16 03:49:34;;;;;;;4.07;1.88;;;;;;;;;;8304814;28;20017;-61
2023/07/16 03:53:34;;;;;;;3.42;1.67;;;;;;;;;;8304175;28;20814;-61
2023/07/16 03:57:34;;;;;;;8.48;1.83;;;;;;;;;;8301076;28;20037;-61
2023/07/16 04:01:35;;;;;;;5.82;1.73;;;;;;;;;;8300971;28;20037;-61
2023/07/16 04:05:35;;;;;;;10.00;2.03;;;;;;;;;;8302711;28;20077;-61
2023/07/16 04:09:38;;;;;;;6.43;1.83;;;;;;;;;;8304430;28;20052;-61
2023/07/16 04:13:38;;;;;;;5.18;2.20;;;;;;;;;;8300690;28;20056;-61
2023/07/16 04:17:39;;;;;;;7.80;2.10;;;;;;;;;;8301944;28;20045;-61
2023/07/16 04:21:39;;;;;;;3.57;1.77;;;;;;;;;;8302891;28;20060;-61
2023/07/16 04:25:39;;;;;;;6.72;2.05;;;;;;;;;;8300012;28;20021;-61
2023/07/16 04:29:39;;;;;;;10.38;2.33;;;;;;;;;;8302359;28;20561;-61
2023/07/16 04:33:39;;;;;;;5.22;2.40;;;;;;;;;;8302673;28;20116;-61
2023/07/16 04:37:40;;;;;;;4.55;1.90;;;;;;;;;;8300830;28;20028;-61
2023/07/16 04:41:40;;;;;;;6.90;2.00;;;;;;;;;;8299765;28;20024;-61
2023/07/16 04:45:40;;;;;;;3.95;1.90;;;;;;;;;;8300088;28;20132;-61
2023/07/16 04:49:40;;;;;;;6.88;2.28;;;;;;;;;;8302397;28;20040;-61
2023/07/16 04:53:40;;;;;;;6.72;1.90;;;;;;;;;;8302228;28;20041;-61
2023/07/16 04:57:41;;;;;;;7.43;2.17;;;;;;;;;;8301272;28;20343;-61
2023/07/16 05:01:41;;;;;;;4.67;1.77;;;;;;;;;;8302441;28;20901;-62
2023/07/16 05:05:41;;;;;;;4.82;2.00;;;;;;;;;;8299564;28;20638;-61
2023/07/16 05:09:44;;;;;;;5.70;2.03;;;;;;;;;;8301345;28;20036;-61
2023/07/16 05:13:45;;;;;;;5.28;2.10;;;;;;;;;;8299993;28;20048;-61
2023/07/16 05:17:45;;;;;;;4.63;1.90;;;;;;;;;;8299564;28;20627;-61
2023/07/16 05:21:45;;;;;;;6.55;2.30;;;;;;;;;;8302706;28;20025;-61
2023/07/16 05:25:49;;;;;;;7.53;2.30;;;;;;;;;;8305213;28;20095;-62
2023/07/16 05:29:49;;;;;;;6.03;2.25;;;;;;;;;;8306192;28;20174;-61
2023/07/16 05:33:49;;;;;;;6.65;2.05;;;;;;;;;;8308046;28;20092;-61
2023/07/16 05:37:49;;;;;;;5.43;2.40;;;;;;;;;;8304899;28;20024;-62
2023/07/16 05:41:50;;;;;;;4.18;1.80;;;;;;;;;;8301471;28;20592;-61
2023/07/16 05:45:50;;;;;;;5.13;1.77;;;;;;;;;;8306256;28;20114;-62
2023/07/16 05:49:50;;;;;;;6.30;1.80;;;;;;;;;;8307819;28;20033;-61
2023/07/16 05:53:50;;;;;;;7.05;2.30;;;;;;;;;;8305045;28;20033;-62
2023/07/16 05:57:51;;;;;;;5.95;2.08;;;;;;;;;;8306154;28;20917;-61
2023/07/16 06:01:51;;;;;;;6.75;2.00;;;;;;;;;;8306517;28;20037;-61
2023/07/16 06:05:51;;;;;;;4.63;2.30;;;;;;;;;;8305103;28;20029;-61
2023/07/16 06:09:51;;;;;;;5.85;2.17;;;;;;;;;;8303321;28;20809;-61
2023/07/16 06:13:55;;;;;;;10.35;2.20;;;;;;;;;;8306896;28;20098;-62
2023/07/16 06:17:55;;;;;;;;;;;;;;;;;;8307195;28;20117;-61
2023/07/16 06:21:55;;;;;;;2.80;1.48;;;;;;;;;;8304699;28;19962;-62
2023/07/16 06:25:56;;;;;;;5.20;2.00;;;;;;;;;;8304128;28;20770;-62
2023/07/16 06:29:56;;;;;;;4.05;2.00;;;;;;;;;;8304220;28;20044;-61
2023/07/16 06:33:56;;;;;;;5.60;2.10;;;;;;;;;;8303336;28;20109;-61
2023/07/16 06:37:56;;;;;;;7.53;2.23;;;;;;;;;;8304219;28;20064;-61
2023/07/16 06:41:56;;;;;;;4.63;1.92;;;;;;;;;;8303495;28;20034;-61
2023/07/16 06:45:57;;;;;;;8.57;2.33;;;;;;;;;;8305752;28;20127;-61
2023/07/16 06:49:57;;;;;;;7.88;2.10;;;;;;;;;;8304272;28;20032;-61
2023/07/16 06:53:57;;;;;;;6.40;2.20;;;;;;;;;;8304900;28;20033;-61
2023/07/16 06:57:57;;;;;;;6.05;2.60;;;;;;;;;;8302112;28;20056;-61
2023/07/16 07:01:58;;;;;;;5.68;2.13;;;;;;;;;;8303030;28;20042;-62
2023/07/16 07:05:58;;;;;;;5.15;1.98;;;;;;;;;;8305099;28;20044;-61
2023/07/16 07:09:58;;;;;;;8.03;2.13;;;;;;;;;;8301964;28;20028;-61
2023/07/16 07:13:58;;;;;;;8.35;2.40;;;;;;;;;;8304551;28;20033;-61
2023/07/16 07:17:58;;;;;;;5.47;1.83;;;;;;;;;;8303084;28;20151;-61
2023/07/16 07:21:59;;;;;;;8.02;2.15;;;;;;;;;;8301909;28;20033;-61
2023/07/16 07:25:59;;;;;;;6.68;2.05;;;;;;;;;;8300465;28;20067;-61
2023/07/16 07:30:00;;;;;;;4.97;1.92;;;;;;;;;;8304616;28;20040;-61
2023/07/16 07:34:00;;;;;;;5.43;2.20;;;;;;;;;;8302259;28;20037;-61
2023/07/16 07:38:00;;;;;;;4.72;2.00;;;;;;;;;;8301100;28;20056;-61
2023/07/16 07:42:00;;;;;;;3.63;1.90;;;;;;;;;;8302050;28;20086;-61
2023/07/16 07:46:00;;;;;;;6.55;2.05;;;;;;;;;;8301272;28;20038;-61
2023/07/16 07:50:01;;;;;;;6.72;2.00;;;;;;;;;;8304209;28;20048;-61
2023/07/16 07:54:01;;;;;;;4.15;1.80;;;;;;;;;;8301848;28;20075;-62
2023/07/16 07:58:01;;;;;;;7.03;2.05;;;;;;;;;;8300247;28;20076;-61
2023/07/16 08:02:01;;;;;;;4.25;2.05;;;;;;;;;;8303865;28;20048;-61
2023/07/16 08:06:02;;;;;;;7.97;1.90;;;;;;;;;;8302589;28;20023;-61
2023/07/16 08:10:02;;;;;;;4.53;1.80;;;;;;;;;;8301920;28;20386;-61
2023/07/16 08:14:02;;;;;;;4.38;1.98;;;;;;;;;;8301239;28;20037;-61
2023/07/16 08:18:03;;;;;;;9.03;2.20;;;;;;;;;;8294814;28;20636;-61
2023/07/16 08:22:03;;;;;;;4.33;2.17;;;;;;;;;;8300908;28;20573;-61
2023/07/16 08:26:03;;;;;;;4.97;1.80;;;;;;;;;;8298361;28;20044;-61
2023/07/16 08:30:04;;;;;;;5.72;2.28;;;;;;;;;;8299720;28;20410;-62
2023/07/16 08:34:04;;;;;;;3.88;1.92;;;;;;;;;;8300004;28;20029;-62
2023/07/16 08:38:06;;;;;;;5.82;2.10;;;;;;;;;;8299810;28;20112;-61
2023/07/16 08:42:09;;;;;;;6.60;2.20;;;;;;;;;;8300086;28;20037;-61
2023/07/16 08:46:09;;;;;;;5.97;2.45;;;;;;;;;;8299738;28;20045;-62
2023/07/16 08:50:10;;;;;;;5.17;2.30;;;;;;;;;;8298982;28;20021;-61
2023/07/16 08:54:11;;;;;;;3.47;1.83;;;;;;;;;;8299703;28;21228;-61
2023/07/16 08:58:14;;;;;;;4.72;2.13;;;;;;;;;;8302868;28;20056;-61
2023/07/16 09:02:17;;;;;;;5.82;2.15;;;;;;;;;;8303878;28;20033;-61
2023/07/16 09:06:17;;;;;;;6.18;2.03;;;;;;;;;;8307186;28;20056;-61
2023/07/16 09:10:18;;;;;;;9.10;2.22;;;;;;;;;;8307360;28;20030;-61
2023/07/16 09:14:19;;;;;;;5.50;2.10;;;;;;;;;;8302093;28;20025;-61
2023/07/16 09:18:20;;;;;;;7.13;2.20;;;;;;;;;;8292607;28;20043;-61
2023/07/16 09:22:20;;;;;;;4.75;2.03;;;;;;;;;;8302509;28;20402;-61
2023/07/16 09:26:21;;;;;;;4.35;2.00;;;;;;;;;;8299715;28;20032;-61
2023/07/16 09:30:21;;;;;;;4.43;2.00;;;;;;;;;;8296296;28;20028;-61
2023/07/16 09:34:21;;;;;;;6.20;2.10;;;;;;;;;;8297868;28;20037;-61
2023/07/16 09:38:23;;;;;;;4.83;2.03;;;;;;;;;;8300150;28;20025;-61
2023/07/16 09:42:23;;;;;;;5.85;1.92;;;;;;;;;;8300529;28;20036;-61
2023/07/16 09:46:24;;;;;;;4.75;2.20;;;;;;;;;;8301478;28;20033;-61
2023/07/16 09:50:27;;;;;;;5.63;2.28;;;;;;;;;;8302544;28;20025;-61
2023/07/16 09:54:31;;;;;;;3.70;2.00;;;;;;;;;;8303695;28;20721;-62
2023/07/16 09:58:31;;;;;;;4.03;1.80;;;;;;;;;;8301948;28;20025;-61
2023/07/16 10:02:35;;;;;;;6.13;1.90;;;;;;;;;;8299653;28;20124;-61
2023/07/16 10:06:35;;;;;;;5.40;2.22;;;;;;;;;;8301293;28;20112;-61
2023/07/16 10:10:40;;;;;;;3.50;1.70;;;;;;;;;;8299148;28;20047;-61
2023/07/16 10:14:50;;;;;;;3.53;1.75;;;;;;;;;;8301527;28;21450;-61
2023/07/16 10:18:53;;;;;;;3.65;2.10;;;;;;;;;;8296880;28;20033;-62
2023/07/16 10:22:53;;;;;;;3.97;1.90;;;;;;;;;;8299395;28;20083;-61
2023/07/16 10:26:53;;;;;;;6.75;2.22;;;;;;;;;;8296260;28;20026;-61
2023/07/16 10:30:54;;;;;;;3.23;1.77;;;;;;;;;;8293790;28;20051;-61
2023/07/16 10:34:54;;;;;;;6.43;2.05;;;;;;;;;;8300613;28;20029;-61
2023/07/16 10:38:54;;;;;;;5.70;2.20;;;;;;;;;;8297454;28;20028;-61
2023/07/16 10:42:55;;;;;;;5.70;1.87;;;;;;;;;;8298069;28;20037;-61
2023/07/16 10:46:55;;;;;;;8.85;2.25;;;;;;;;;;8296201;28;20125;-61
2023/07/16 10:50:56;;;;;;;6.35;2.28;;;;;;;;;;8297119;28;21022;-61
2023/07/16 10:54:57;;;;;;;4.72;1.95;;;;;;;;;;8298582;28;20049;-61
2023/07/16 10:58:57;;;;;;;4.77;2.10;;;;;;;;;;8298514;28;20033;-61
2023/07/16 11:02:58;;;;;;;3.92;2.00;;;;;;;;;;8295482;28;21096;-61
2023/07/16 11:06:58;;;;;;;6.20;1.90;;;;;;;;;;8295012;28;20025;-61
2023/07/16 11:10:58;;;;;;;6.23;2.10;;;;;;;;;;8294695;28;20086;-61
2023/07/16 11:14:58;;;;;;;2.47;1.77;;;;;;;;;;8294385;28;20081;-61
2023/07/16 11:18:59;;;;;;;2.90;2.00;;;;;;;;;;8291841;28;20037;-61
2023/07/16 11:23:00;;;;;;;3.55;1.65;;;;;;;;;;8295552;28;20033;-62
2023/07/16 11:27:00;;;;;;;4.60;2.00;;;;;;;;;;8295626;28;20072;-61
2023/07/16 11:31:09;;;;;;;3.60;1.85;;;;;;;;;;8294517;28;20650;-61
2023/07/16 11:35:11;;;;;;;3.88;2.28;;;;;;;;;;8295290;28;20021;-62
2023/07/16 11:39:12;;;;;;;4.40;2.20;;;;;;;;;;8296666;28;20545;-61
2023/07/16 11:43:12;;;;;;;2.75;2.00;;;;;;;;;;8301623;28;20037;-61
2023/07/16 11:47:12;;;;;;;3.53;2.15;;;;;;;;;;8298131;28;20037;-61
2023/07/16 11:51:12;;;;;;;4.10;2.25;;;;;;;;;;8300682;28;20147;-61
2023/07/16 11:55:12;;;;;;;6.03;2.38;;;;;;;;;;8301346;28;20033;-61
2023/07/16 11:59:13;;;;;;;3.55;2.15;;;;;;;;;;8299650;28;20129;-61
2023/07/16 12:03:13;;;;;;;3.67;2.30;;;;;;;;;;8298159;28;20037;-61
2023/07/16 12:07:13;;;;;;;4.50;2.20;;;;;;;;;;8297701;28;20018;-61
2023/07/16 12:11:13;;;;;;;4.32;2.20;;;;;;;;;;8295037;28;20032;-61
2023/07/16 12:15:14;;;;;;;4.07;2.27;;;;;;;;;;8294477;28;20576;-62
2023/07/16 12:19:14;;;;;;;5.45;2.15;;;;;;;;;;8296355;28;20025;-62
2023/07/16 12:23:14;;;;;;;3.45;2.30;;;;;;;;;;8294284;28;20029;-61
2023/07/16 12:27:15;;;;;;;5.57;2.28;;;;;;;;;;8290983;28;20048;-61
2023/07/16 12:31:17;;;;;;;8.25;2.20;;;;;;;;;;8295675;28;20034;-61
2023/07/16 12:35:17;;;;;;;4.82;2.85;;;;;;;;;;8298368;28;20028;-61
2023/07/16 12:39:18;;;;;;;3.65;2.20;;;;;;;;;;8295204;28;20033;-61
2023/07/16 12:43:19;;;;;;;3.08;1.95;;;;;;;;;;8295252;28;20161;-61
2023/07/16 12:47:20;;;;;;;6.17;2.40;;;;;;;;;;8296289;28;20823;-61
2023/07/16 12:51:20;;;;;;;4.53;2.30;;;;;;;;;;8298374;28;20030;-61
2023/07/16 12:55:21;;;;;;;5.27;2.40;;;;;;;;;;8305053;28;20033;-61
2023/07/16 12:59:21;;;;;;;4.10;2.20;;;;;;;;;;8296918;28;20349;-61
2023/07/16 13:03:21;;;;;;;5.17;2.67;;;;;;;;;;8297820;28;20033;-61
2023/07/16 13:07:22;;;;;;;3.35;2.45;;;;;;;;;;8294872;28;20275;-61
2023/07/16 13:11:22;;;;;;;4.27;2.43;;;;;;;;;;8299086;28;20033;-61
2023/07/16 13:15:22;;;;;;;6.80;2.70;;;;;;;;;;8297739;28;20314;-61
2023/07/16 13:19:23;;;;;;;4.93;2.60;;;;;;;;;;8295516;28;20367;-61
2023/07/16 13:23:23;;;;;;;4.90;2.67;;;;;;;;;;8298782;28;20033;-61
2023/07/16 13:27:24;;;;;;;3.88;2.60;;;;;;;;;;8294598;28;20114;-61
2023/07/16 13:31:24;;;;;;;6.63;2.75;;;;;;;;;;8298780;28;20049;-61
2023/07/16 13:35:24;;;;;;;7.97;2.70;;;;;;;;;;8296927;28;20078;-61
2023/07/16 13:39:25;;;;;;;3.43;2.70;;;;;;;;;;8297264;28;20036;-62
2023/07/16 13:43:27;;;;;;;5.00;2.60;;;;;;;;;;8298236;28;20103;-61
2023/07/16 13:47:27;;;;;;;3.90;2.50;;;;;;;;;;8302224;28;20185;-61
2023/07/16 13:51:27;;;;;;;4.30;2.72;;;;;;;;;;8304753;28;20353;-61
2023/07/16 13:55:28;;;;;;;4.80;2.60;;;;;;;;;;8304816;28;20072;-61
2023/07/16 13:59:28;;;;;;;5.47;2.90;;;;;;;;;;8303316;28;20040;-61
2023/07/16 14:03:29;;;;;;;3.92;2.65;;;;;;;;;;8301748;28;20041;-61
2023/07/16 14:07:29;;;;;;;5.93;2.97;;;;;;;;;;8302981;28;20649;-62
2023/07/16 14:11:29;;;;;;;6.47;2.90;;;;;;;;;;8296213;28;20029;-61
2023/07/16 14:15:30;;;;;;;5.15;2.70;;;;;;;;;;8299325;28;20826;-61
2023/07/16 14:19:30;;;;;;;5.57;2.70;;;;;;;;;;8302666;28;20029;-61
2023/07/16 14:23:33;;;;;;;5.13;2.60;;;;;;;;;;8302451;28;20290;-61
2023/07/16 14:27:34;;;;;;;;;;;;;;;;;;8301791;28;20124;-61
2023/07/16 14:31:34;;;;;;;5.10;2.70;;;;;;;;;;8299239;28;20462;-61
2023/07/16 14:35:34;;;;;;;3.35;2.50;;;;;;;;;;8299746;28;20112;-61
2023/07/16 14:39:35;;;;;;;7.43;3.67;;;;;;;;;;8300240;28;20052;-61
2023/07/16 14:43:37;;;;;;;5.90;2.73;;;;;;;;;;8299676;28;20107;-61
2023/07/16 14:47:39;;;;;;;6.50;3.10;;;;;;;;;;8300288;28;20032;-61
2023/07/16 14:51:39;;;;;;;6.32;2.90;;;;;;;;;;8295212;28;20025;-61
2023/07/16 14:55:39;;;;;;;7.70;3.20;;;;;;;;;;8299368;28;20040;-61
2023/07/16 14:59:39;;;;;;;5.13;3.20;;;;;;;;;;8300310;28;20033;-61
2023/07/16 15:03:40;;;;;;;4.95;2.80;;;;;;;;;;8299394;28;20118;-61
2023/07/16 15:07:42;;;;;;;6.13;3.05;;;;;;;;;;8298429;28;20144;-61
2023/07/16 15:11:42;;;;;;;6.37;3.00;;;;;;;;;;8299772;28;20041;-61
2023/07/16 15:15:51;;;;;;;5.07;3.10;;;;;;;;;;8299454;28;20520;-61
2023/07/16 15:19:52;;;;;;;5.25;3.20;;;;;;;;;;8298064;28;20206;-61
2023/07/16 15:23:53;;;;;;;6.03;3.10;;;;;;;;;;8299204;28;20020;-61
2023/07/16 15:27:54;;;;;;;5.00;3.17;;;;;;;;;;8298997;28;20091;-61
2023/07/16 15:31:54;;;;;;;6.28;3.00;;;;;;;;;;8299952;28;20045;-62
2023/07/16 15:35:55;;;;;;;4.28;3.10;;;;;;;;;;8296837;28;20885;-61
2023/07/16 15:39:57;;;;;;;7.23;3.33;;;;;;;;;;8297468;28;20017;-61
2023/07/16 15:43:57;;;;;;;;;;;;;;;;;;8299572;28;20299;-61
2023/07/16 15:47:58;;;;;;;4.83;3.17;;;;;;;;;;8300108;28;19917;-61
2023/07/16 15:51:58;;;;;;;4.97;3.00;;;;;;;;;;8299491;28;20279;-62
2023/07/16 15:55:59;;;;;;;5.28;3.30;;;;;;;;;;8299803;28;20072;-61
2023/07/16 15:59:59;;;;;;;6.40;3.17;;;;;;;;;;8297602;28;20033;-61
2023/07/16 16:04:02;;;;;;;4.97;3.58;;;;;;;;;;8297654;28;20072;-61
2023/07/16 16:08:02;;;;;;;;;;;;;;;;;;8295465;28;20029;-61
2023/07/16 16:12:03;;;;;;;7.03;3.30;;;;;;;;;;8297454;28;19919;-61
2023/07/16 16:16:03;;;;;;;5.78;3.20;;;;;;;;;;8297573;28;20048;-62
2023/07/16 16:20:07;;;;;;;5.72;3.20;;;;;;;;;;8300839;28;20111;-62
2023/07/16 16:24:10;;;;;;;7.53;3.25;;;;;;;;;;8297141;28;20033;-60
2023/07/16 16:28:10;;;;;;;10.88;3.40;;;;;;;;;;8295057;28;20131;-60
2023/07/16 16:32:11;;;;;;;7.20;3.30;;;;;;;;;;8297252;28;20057;-60
2023/07/16 16:36:15;;;;;;;4.57;2.97;;;;;;;;;;8296321;28;20025;-60
2023/07/16 16:40:20;;;;;;;4.35;3.00;;;;;;;;;;8295999;28;20021;-60
2023/07/16 16:44:20;;;;;;;7.13;3.28;;;;;;;;;;8299185;28;20029;-60
2023/07/16 16:48:20;;;;;;;6.70;2.90;;;;;;;;;;8295421;28;20033;-60
2023/07/16 16:52:20;;;;;;;7.38;3.30;;;;;;;;;;8297434;28;20065;-60
2023/07/16 16:56:21;;;;;;;7.00;3.50;;;;;;;;;;8296873;28;20037;-60
2023/07/16 17:00:21;;;;;;;4.00;2.87;;;;;;;;;;8293860;28;20037;-60
2023/07/16 17:04:21;;;;;;;8.20;3.25;;;;;;;;;;8297315;28;20465;-60
2023/07/16 17:08:24;;;;;;;4.88;2.97;;;;;;;;;;8295887;28;20756;-60
2023/07/16 17:12:24;;;;;;;8.10;3.65;;;;;;;;;;8293610;28;20675;-60
2023/07/16 17:16:24;;;;;;;5.90;2.73;;;;;;;;;;8295444;28;20115;-60
2023/07/16 17:20:25;;;;;;;7.28;3.45;;;;;;;;;;8299296;28;20484;-60
2023/07/16 17:24:25;;;;;;;5.60;3.45;;;;;;;;;;8302594;28;20942;-59
2023/07/16 17:28:25;;;;;;;6.67;3.17;;;;;;;;;;8301455;28;20701;-60
2023/07/16 17:32:26;;;;;;;10.27;3.05;;;;;;;;;;8300159;28;20033;-60
2023/07/16 17:36:27;;;;;;;5.25;3.20;;;;;;;;;;8301736;28;20101;-59
2023/07/16 17:40:28;;;;;;;5.97;3.33;;;;;;;;;;8301094;28;20083;-60
2023/07/16 17:44:30;;;;;;;5.40;3.60;;;;;;;;;;8302335;28;20029;-60
2023/07/16 17:48:30;;;;;;;4.50;3.05;;;;;;;;;;8300797;28;20172;-59
2023/07/16 17:52:30;;;;;;;6.47;3.03;;;;;;;;;;8303023;28;20064;-59
2023/07/16 17:56:31;;;;;;;5.95;3.33;;;;;;;;;;8301480;28;20028;-59
2023/07/16 18:00:31;;;;;;;4.47;3.08;;;;;;;;;;8300875;28;20098;-60
2023/07/16 18:04:31;;;;;;;7.07;3.20;;;;;;;;;;8300760;28;20028;-59
2023/07/16 18:08:31;;;;;;;6.47;2.97;;;;;;;;;;8300925;28;20140;-60
2023/07/16 18:12:32;;;;;;;6.05;3.00;;;;;;;;;;8300588;28;20037;-59
2023/07/16 18:16:32;;;;;;;3.97;3.10;;;;;;;;;;8301962;28;20045;-59
2023/07/16 18:20:32;;;;;;;6.00;2.80;;;;;;;;;;8298556;28;20029;-59
2023/07/16 18:24:32;;;;;;;5.07;2.90;;;;;;;;;;8299331;28;20033;-59
2023/07/16 18:28:32;;;;;;;5.25;2.70;;;;;;;;;;8296684;28;20053;-60
2023/07/16 18:32:33;;;;;;;5.18;2.88;;;;;;;;;;8301203;28;20072;-60
2023/07/16 18:36:33;;;;;;;5.28;2.83;;;;;;;;;;8299499;28;21005;-59
2023/07/16 18:40:33;;;;;;;4.72;2.90;;;;;;;;;;8301126;28;20512;-60
2023/07/16 18:44:34;;;;;;;4.90;2.88;;;;;;;;;;8298479;28;20033;-60
2023/07/16 18:48:34;;;;;;;4.30;2.90;;;;;;;;;;8299520;28;20064;-60
2023/07/16 18:52:34;;;;;;;6.75;3.10;;;;;;;;;;8298319;28;20156;-59
2023/07/16 18:56:34;;;;;;;6.43;3.00;;;;;;;;;;8294185;28;20045;-59
2023/07/16 19:00:35;;;;;;;4.30;2.40;;;;;;;;;;8299572;28;20048;-60
2023/07/16 19:04:35;;;;;;;6.43;2.90;;;;;;;;;;8297430;28;20021;-59
2023/07/16 19:08:35;;;;;;;5.65;2.97;;;;;;;;;;8295253;28;20025;-59
2023/07/16 19:12:36;;;;;;;5.32;2.95;;;;;;;;;;8296131;28;20805;-59
2023/07/16 19:16:36;;;;;;;4.10;2.53;;;;;;;;;;8297110;28;20044;-60
2023/07/16 19:20:36;;;;;;;5.60;2.95;;;;;;;;;;8295173;28;20144;-59
2023/07/16 19:24:36;;;;;;;5.03;2.93;;;;;;;;;;8298497;28;20044;-59
2023/07/16 19:28:37;;;;;;;5.95;2.65;;;;;;;;;;8297021;28;20029;-59
2023/07/16 19:32:38;;;;;;;4.20;2.90;;;;;;;;;;8297986;28;20140;-60
2023/07/16 19:36:38;;;;;;;6.35;2.95;;;;;;;;;;8298310;28;20148;-59
2023/07/16 19:40:46;;;;;;;5.55;2.80;;;;;;;;;;8298721;28;20072;-59
2023/07/16 19:44:46;;;;;;;5.60;3.20;;;;;;;;;;8301241;28;20029;-59
2023/07/16 19:48:46;;;;;;;4.97;2.60;;;;;;;;;;8300525;28;20052;-59
2023/07/16 19:52:47;;;;;;;5.85;2.95;;;;;;;;;;8292965;28;20021;-59
2023/07/16 19:56:47;;;;;;;4.97;2.85;;;;;;;;;;8296155;28;20021;-59
2023/07/16 20:00:47;;;;;;;3.80;2.60;;;;;;;;;;8300318;28;20091;-61
2023/07/16 20:04:48;;;;;;;6.07;2.90;;;;;;;;;;8288406;28;20029;-61
2023/07/16 20:08:48;;;;;;;5.45;2.70;;;;;;;;;;8295586;28;20430;-60
2023/07/16 20:12:48;;;;;;;7.50;3.05;;;;;;;;;;8295047;28;20032;-60
2023/07/16 20:16:48;;;;;;;5.72;2.85;;;;;;;;;;8294684;28;20152;-60
2023/07/16 20:20:48;;;;;;;5.88;3.15;;;;;;;;;;8300207;28;20068;-60
2023/07/16 20:24:49;;;;;;;4.67;2.80;;;;;;;;;;8298221;28;20039;-61
2023/07/16 20:28:50;;;;;;;5.90;2.75;;;;;;;;;;8295717;28;20734;-61
2023/07/16 20:32:50;;;;;;;5.07;3.00;;;;;;;;;;8298924;28;20033;-60
2023/07/16 20:36:51;;;;;;;7.13;2.97;;;;;;;;;;8297465;28;20078;-60
2023/07/16 20:40:51;;;;;;;5.18;3.20;;;;;;;;;;8296452;28;20474;-60
2023/07/16 20:45:10;;;;;;;5.45;2.92;;;;;;;;;;8287545;28;20571;-61
2023/07/16 20:49:10;;;;;;;5.45;2.80;;;;;;;;;;8297485;28;20068;-60
2023/07/16 20:53:10;;;;;;;3.72;2.90;;;;;;;;;;8296396;28;20025;-60
2023/07/16 20:57:11;;;;;;;4.63;3.10;;;;;;;;;;8296755;28;20032;-60
2023/07/16 21:01:11;;;;;;;5.80;3.10;;;;;;;;;;8296733;28;20071;-60
2023/07/16 21:05:12;;;;;;;5.57;3.22;;;;;;;;;;8298440;28;20079;-60
2023/07/16 21:09:12;;;;;;;8.00;3.17;;;;;;;;;;8292933;28;20022;-60
2023/07/16 21:13:12;;;;;;;6.13;2.88;;;;;;;;;;8298272;28;20593;-60
2023/07/16 21:17:12;;;;;;;6.80;3.50;;;;;;;;;;8296537;28;20132;-60
2023/07/16 21:21:14;;;;;;;6.15;3.17;;;;;;;;;;8299714;28;20378;-60
2023/07/16 21:25:14;;;;;;;7.88;3.70;;;;;;;;;;8298375;28;20116;-60
2023/07/16 21:29:14;;;;;;;5.97;3.33;;;;;;;;;;8300522;28;20122;-60
2023/07/16 21:33:14;;;;;;;6.53;3.40;;;;;;;;;;8301029;28;20155;-60
2023/07/16 21:37:15;;;;;;;11.73;3.50;;;;;;;;;;8299148;28;20140;-60
2023/07/16 21:41:16;;;;;;;3.88;3.03;;;;;;;;;;8298881;28;20519;-60
2023/07/16 21:45:16;;;;;;;8.40;3.40;;;;;;;;;;8300040;28;20026;-61
2023/07/16 21:49:16;;;;;;;6.80;3.27;;;;;;;;;;8298685;28;20021;-60
2023/07/16 21:53:16;;;;;;;5.97;3.17;;;;;;;;;;8296144;28;20025;-61
2023/07/16 21:57:17;;;;;;;5.63;3.10;;;;;;;;;;8295052;28;20025;-61
2023/07/16 22:01:17;;;;;;;6.03;3.10;;;;;;;;;;8295519;28;20680;-61
2023/07/16 22:05:18;;;;;;;6.47;3.20;;;;;;;;;;8297627;28;20271;-61
2023/07/16 22:09:18;;;;;;;4.55;2.85;;;;;;;;;;8302680;28;20090;-61
2023/07/16 22:13:19;;;;;;;5.07;3.07;;;;;;;;;;8305423;28;20017;-61
2023/07/16 22:17:19;;;;;;;5.57;3.25;;;;;;;;;;8306390;28;20137;-61
2023/07/16 22:21:19;;;;;;;6.50;3.28;;;;;;;;;;8304971;28;20090;-61
2023/07/16 22:25:20;;;;;;;9.07;3.38;;;;;;;;;;8303583;28;20028;-61
2023/07/16 22:29:20;;;;;;;6.90;3.55;;;;;;;;;;8304592;28;20017;-61
2023/07/16 22:33:21;;;;;;;6.03;3.70;;;;;;;;;;8304760;28;20037;-61
2023/07/16 22:37:21;;;;;;;5.68;3.50;;;;;;;;;;8304702;28;20084;-61
2023/07/16 22:41:21;;;;;;;6.25;3.03;;;;;;;;;;8299975;28;20033;-61
2023/07/16 22:45:21;;;;;;;9.98;3.80;;;;;;;;;;8304192;28;20039;-61
2023/07/16 22:49:22;;;;;;;5.35;3.22;;;;;;;;;;8305478;28;20057;-61
2023/07/16 22:53:22;;;;;;;6.55;3.50;;;;;;;;;;8307818;28;20034;-61
2023/07/16 22:57:24;;;;;;;6.15;3.55;;;;;;;;;;8304842;28;20595;-60
2023/07/16 23:01:24;;;;;;;6.50;3.58;;;;;;;;;;8303417;28;20591;-60
2023/07/16 23:05:25;;;;;;;4.32;2.90;;;;;;;;;;8304209;28;20086;-61
2023/07/16 23:09:26;;;;;;;6.03;3.38;;;;;;;;;;8303556;28;20511;-61
2023/07/16 23:13:27;;;;;;;7.15;3.42;;;;;;;;;;8303855;28;20037;-60
2023/07/16 23:17:27;;;;;;;5.57;3.30;;;;;;;;;;8302094;28;20037;-61
2023/07/16 23:21:28;;;;;;;6.93;3.42;;;;;;;;;;8305795;28;20075;-61
2023/07/16 23:25:28;;;;;;;3.92;3.03;;;;;;;;;;8303629;28;20068;-61
2023/07/16 23:29:28;;;;;;;8.55;3.72;;;;;;;;;;8302891;28;20217;-61
2023/07/16 23:33:28;;;;;;;5.38;3.50;;;;;;;;;;8302976;28;20047;-61
2023/07/16 23:37:28;;;;;;;9.63;4.00;;;;;;;;;;8303425;28;20584;-61
2023/07/16 23:41:29;;;;;;;6.35;3.40;;;;;;;;;;8303364;28;20275;-61
2023/07/16 23:45:29;;;;;;;6.07;3.80;;;;;;;;;;8303447;28;20844;-61
2023/07/16 23:49:29;;;;;;;6.23;3.80;;;;;;;;;;8302465;28;20064;-61
2023/07/16 23:53:30;;;;;;;7.28;3.40;;;;;;;;;;8303079;28;20283;-61
2023/07/16 23:57:30;;;;;;;5.38;3.22;;;;;;;;;;8301903;28;20601;-61
